This is the latest recevied weather packets stored in our database for station/object KN1OBI-13. If no packets are shown the sender has not sent any weather packets the latest 10 day(s).
| Time | Temp. | Humidity | Pressure | Rain* | Wind** | Luminosity | Snow |
|---|---|---|---|---|---|---|---|
| 1777314501 | 22.78° C | 27% | 1003.2 hPa | 0 mm | - | - | - |
| 1777309101 | 21.67° C | 31% | 1003.4 hPa | 0 mm | - | - | - |
| 1777306101 | 20° C | 31% | 1003.7 hPa | 0 mm | - | - | - |
| 1777300701 | 16.11° C | 40% | 1004.4 hPa | 0 mm | - | - | - |
| 1777297701 | 14.44° C | 41% | 1004.2 hPa | 0 mm | - | - | - |
| 1777296500 | 13.89° C | 45% | 1004 hPa | 0 mm | - | - | - |
| 1777295301 | 13.89° C | 45% | 1003.7 hPa | 0 mm | - | - | - |
| 1777294702 | 12.78° C | 45% | 1003.8 hPa | 0 mm | - | - | - |
| 1777294101 | 12.78° C | 45% | 1003.7 hPa | 0 mm | - | - | - |
| 1777291701 | 11.11° C | 51% | 1003.8 hPa | 0 mm | - | - | - |
| 1777290502 | 11.11° C | 53% | 1003.6 hPa | 0 mm | - | - | - |
| 1777287500 | 3.33° C | 78% | 1003 hPa | 0 mm | - | - | - |
| 1777286901 | 3.33° C | 79% | 1002.9 hPa | 0 mm | - | - | - |
| 1777284501 | 2.78° C | 78% | 1002.6 hPa | 0 mm | - | - | - |
| 1777283901 | 2.78° C | 78% | 1002.6 hPa | 0 mm | - | - | - |
| 1777279102 | 3.33° C | 76% | 1001.7 hPa | 0 mm | - | - | - |
| 1777278501 | 3.33° C | 76% | 1001.5 hPa | 0 mm | - | - | - |
| 1777277301 | 3.33° C | 75% | 1001.4 hPa | 0 mm | - | - | - |
| 1777276701 | 3.89° C | 75% | 1001.3 hPa | 0 mm | - | - | - |
| 1777273101 | 3.33° C | 74% | 1001.3 hPa | 0 mm | - | - | - |
| 1777269500 | 4.44° C | 70% | 1001.1 hPa | 0 mm | - | - | - |
| 1777268902 | 4.44° C | 70% | 1001.2 hPa | 0 mm | - | - | - |
| 1777265901 | 5° C | 68% | 1001.4 hPa | 0 mm | - | - | - |
| 1777264701 | 5° C | 67% | 1001.4 hPa | 0 mm | - | - | - |
| 1777264102 | 5.56° C | 66% | 1001.6 hPa | 0 mm | - | - | - |
* Rain latest hour (hover to see other rain measurements)
** Current wind speed in m/s (hover to see current wind gust speed)